Time;durP1;ratioP1;P1;durP2;ratioP2;P2;SDS_P1;SDS_P2;PMS_P1;PMS_P2;Temp;Humidity;BMP_temperature;BMP_pressure;BME280_temperature;BME280_humidity;BME280_pressure;Samples;Min_cycle;Max_cycle;Signal;HPM_P1;HPM_P2
2021/09/17 00:02:07;;;;;;;6.03;3.60;;;;;;;14.17;88.84;96363.78;5010624;28;20222;-72
2021/09/17 00:04:33;;;;;;;6.85;4.10;;;;;;;14.03;90.00;96369.97;5010137;28;20207;-72
2021/09/17 00:07:00;;;;;;;7.63;3.92;;;;;;;14.01;89.72;96362.22;5010568;28;20198;-71
2021/09/17 00:09:26;;;;;;;7.63;4.90;;;;;;;13.94;90.92;96371.16;5010310;28;20255;-72
2021/09/17 00:11:54;;;;;;;6.93;3.95;;;;;;;14.23;89.59;96377.06;5010369;28;20226;-71
2021/09/17 00:14:21;;;;;;;6.78;4.65;;;;;;;14.13;90.25;96359.88;5010675;28;20589;-72
2021/09/17 00:16:47;;;;;;;8.95;4.97;;;;;;;14.00;90.40;96363.25;5010451;28;20202;-72
2021/09/17 00:19:14;;;;;;;7.40;4.50;;;;;;;14.07;88.68;96365.94;5010194;28;20199;-71
2021/09/17 00:21:40;;;;;;;7.22;4.22;;;;;;;14.06;89.95;96369.59;5010191;28;20229;-71
2021/09/17 00:24:06;;;;;;;6.50;3.20;;;;;;;13.91;89.12;96374.16;5010048;28;20208;-71
2021/09/17 00:26:33;;;;;;;5.13;3.77;;;;;;;13.86;88.58;96375.75;5010066;28;20210;-70
2021/09/17 00:29:01;;;;;;;6.13;4.37;;;;;;;13.93;90.59;96374.00;5010200;28;20565;-70
2021/09/17 00:31:27;;;;;;;9.70;5.00;;;;;;;13.69;91.26;96371.78;5010135;28;20619;-70
2021/09/17 00:33:54;;;;;;;9.38;5.82;;;;;;;13.82;92.39;96370.03;5009630;28;20693;-71
2021/09/17 00:36:20;;;;;;;7.88;5.28;;;;;;;13.75;91.74;96369.19;5009612;28;20210;-71
2021/09/17 00:38:47;;;;;;;9.48;5.75;;;;;;;13.81;92.83;96370.22;5010060;28;20206;-71
2021/09/17 00:41:13;;;;;;;7.53;5.03;;;;;;;13.55;91.66;96365.56;5009568;28;20225;-71
2021/09/17 00:43:40;;;;;;;7.60;3.90;;;;;;;13.61;90.21;96367.44;5010259;28;20233;-71
2021/09/17 00:46:08;;;;;;;6.95;4.20;;;;;;;13.73;89.46;96363.25;5010566;28;20207;-71
2021/09/17 00:48:34;;;;;;;7.03;4.70;;;;;;;13.63;90.70;96360.13;5008906;28;20626;-72
2021/09/17 00:51:01;;;;;;;8.90;5.82;;;;;;;13.53;92.12;96359.66;5009206;28;20416;-73
2021/09/17 00:53:29;;;;;;;10.15;6.32;;;;;;;13.68;91.96;96367.50;5009612;28;20206;-74
2021/09/17 00:55:56;;;;;;;10.48;5.88;;;;;;;13.82;90.29;96356.78;5009896;28;20198;-74
2021/09/17 00:58:22;;;;;;;9.52;5.10;;;;;;;13.83;88.44;96366.38;5010020;28;20206;-74
2021/09/17 01:00:48;;;;;;;7.88;4.65;;;;;;;13.75;88.00;96355.94;5009289;28;20206;-74
2021/09/17 01:03:16;;;;;;;7.97;5.32;;;;;;;13.86;89.69;96355.41;5009282;28;20201;-73
2021/09/17 01:05:43;;;;;;;9.82;4.78;;;;;;;13.77;88.08;96356.56;5009863;28;20552;-73
2021/09/17 01:08:09;;;;;;;9.52;4.68;;;;;;;13.62;88.88;96366.44;5009261;28;20623;-74
2021/09/17 01:10:36;;;;;;;8.38;5.18;;;;;;;13.66;90.35;96357.09;5009787;28;20614;-73
2021/09/17 01:13:03;;;;;;;11.73;5.00;;;;;;;13.58;90.45;96349.31;5009684;28;20203;-74
2021/09/17 01:15:30;;;;;;;6.93;4.10;;;;;;;13.34;90.01;96350.72;5009566;28;20205;-74
2021/09/17 01:17:56;;;;;;;7.05;3.90;;;;;;;13.50;88.25;96349.44;5009229;28;20233;-74
2021/09/17 01:20:24;;;;;;;6.25;3.50;;;;;;;13.57;87.65;96347.66;5009260;28;20210;-73
2021/09/17 01:22:52;;;;;;;4.20;3.23;;;;;;;13.56;86.80;96345.22;5009002;28;20226;-73
2021/09/17 01:25:20;;;;;;;6.47;4.05;;;;;;;13.39;88.16;96342.03;5009374;28;20198;-73
2021/09/17 01:27:49;;;;;;;8.13;4.50;;;;;;;13.52;88.65;96339.47;5009322;28;20194;-73
2021/09/17 01:30:18;;;;;;;10.53;4.67;;;;;;;13.38;89.69;96336.91;5009453;28;20225;-73
2021/09/17 01:32:44;;;;;;;8.90;4.90;;;;;;;13.34;89.41;96334.84;5009945;28;20226;-73
2021/09/17 01:35:13;;;;;;;8.07;4.50;;;;;;;13.41;88.34;96339.97;5012928;28;20202;-73
2021/09/17 01:37:40;;;;;;;9.85;5.35;;;;;;;13.22;90.47;96326.59;5013702;28;20198;-73
2021/09/17 01:40:10;;;;;;;5.20;3.73;;;;;;;13.20;89.00;96327.78;5013358;28;20190;-73
2021/09/17 01:42:37;;;;;;;3.97;2.90;;;;;;;13.01;88.04;96325.81;5012494;28;20246;-74
2021/09/17 01:45:04;;;;;;;9.05;4.65;;;;;;;13.17;89.36;96322.88;5013267;28;20646;-73
2021/09/17 01:47:31;;;;;;;8.60;4.87;;;;;;;12.96;90.42;96317.63;5012269;28;20201;-72
2021/09/17 01:49:57;;;;;;;6.80;4.67;;;;;;;13.15;89.90;96319.59;5012729;28;20233;-72
2021/09/17 01:52:24;;;;;;;7.32;5.07;;;;;;;13.12;90.32;96315.53;5013189;28;20234;-72
2021/09/17 01:54:50;;;;;;;6.60;4.33;;;;;;;13.16;88.43;96313.31;5012608;28;20250;-73
2021/09/17 01:57:18;;;;;;;5.50;3.95;;;;;;;13.27;88.06;96320.75;5012926;28;20210;-74
2021/09/17 01:59:45;;;;;;;6.43;4.07;;;;;;;13.21;87.31;96313.56;5012675;28;20206;-74
2021/09/17 02:02:11;;;;;;;8.00;4.33;;;;;;;13.14;87.95;96313.50;5011493;28;20219;-73
2021/09/17 02:04:38;;;;;;;9.07;4.60;;;;;;;13.00;89.00;96310.94;5012912;28;20202;-73
2021/09/17 02:07:04;;;;;;;9.10;5.27;;;;;;;13.01;90.24;96308.09;5012688;28;20203;-74
2021/09/17 02:09:31;;;;;;;7.13;3.83;;;;;;;12.87;88.63;96308.19;5012784;28;20229;-74
2021/09/17 02:11:58;;;;;;;8.47;4.53;;;;;;;12.97;87.39;96311.31;5012731;28;20225;-73
2021/09/17 02:14:25;;;;;;;6.50;4.50;;;;;;;13.00;89.55;96310.94;5012367;28;20210;-73
2021/09/17 02:16:52;;;;;;;8.27;4.90;;;;;;;12.95;89.28;96308.03;5012509;28;20203;-73
2021/09/17 02:19:18;;;;;;;8.77;5.10;;;;;;;12.96;89.38;96307.03;5012426;28;20206;-73
2021/09/17 02:21:49;;;;;;;9.60;4.70;;;;;;;12.83;89.01;96309.53;5012565;28;20230;-73
2021/09/17 02:24:15;;;;;;;9.55;5.80;;;;;;;12.82;90.25;96311.34;5011965;28;20330;-73
2021/09/17 02:26:42;;;;;;;9.50;6.00;;;;;;;12.96;88.83;96312.34;5012481;28;20579;-73
2021/09/17 02:29:09;;;;;;;11.70;5.78;;;;;;;12.94;89.32;96311.69;5012260;28;20233;-73
2021/09/17 02:31:36;;;;;;;6.13;4.32;;;;;;;13.18;89.44;96309.47;5012408;28;20226;-73
2021/09/17 02:34:03;;;;;;;7.68;4.28;;;;;;;13.13;89.31;96309.22;5011751;28;20206;-73
2021/09/17 02:36:30;;;;;;;6.20;4.20;;;;;;;12.92;90.26;96314.53;5012812;28;20674;-74
2021/09/17 02:38:56;;;;;;;7.13;4.72;;;;;;;13.12;90.37;96312.06;5012111;28;20670;-74
2021/09/17 02:41:23;;;;;;;11.80;6.33;;;;;;;13.08;91.79;96303.66;5011815;28;20245;-74
2021/09/17 02:43:49;;;;;;;8.83;4.93;;;;;;;13.11;92.01;96307.78;5010884;28;20195;-73
2021/09/17 02:46:16;;;;;;;10.98;6.38;;;;;;;13.37;91.61;96305.34;5011641;28;20583;-73
2021/09/17 02:48:44;;;;;;;12.73;6.50;;;;;;;13.63;92.21;96309.81;5011267;28;20199;-73
2021/09/17 02:51:11;;;;;;;14.20;8.23;;;;;;;13.56;92.74;96298.34;5011818;28;20730;-73
2021/09/17 02:53:37;;;;;;;13.83;7.17;;;;;;;13.61;93.03;96297.78;5011695;28;20207;-73
2021/09/17 02:56:04;;;;;;;9.43;5.87;;;;;;;13.55;93.73;96306.50;5011568;28;20199;-73
2021/09/17 02:58:31;;;;;;;13.00;7.00;;;;;;;13.66;93.75;96300.69;5011893;28;20207;-74
2021/09/17 03:00:57;;;;;;;14.50;7.70;;;;;;;13.71;93.48;96301.72;5010485;28;20233;-74
2021/09/17 03:03:24;;;;;;;12.70;7.68;;;;;;;13.66;94.93;96303.31;5011241;28;20199;-73
2021/09/17 03:05:51;;;;;;;14.95;7.78;;;;;;;13.89;94.80;96301.22;5011267;28;20224;-73
2021/09/17 03:08:18;;;;;;;15.15;8.57;;;;;;;13.63;96.22;96299.22;5011912;28;20213;-73
2021/09/17 03:10:44;;;;;;;16.38;9.18;;;;;;;13.89;95.84;96294.09;5011788;28;20218;-73
2021/09/17 03:13:11;;;;;;;16.05;9.25;;;;;;;13.99;95.88;96299.84;5011193;28;20211;-73
2021/09/17 03:15:37;;;;;;;18.27;10.82;;;;;;;14.01;96.35;96298.63;5011718;28;20206;-74
2021/09/17 03:18:04;;;;;;;21.08;11.50;;;;;;;14.08;97.35;96293.41;5011379;28;20210;-73
2021/09/17 03:20:31;;;;;;;23.33;11.95;;;;;;;14.09;97.75;96295.00;5011271;28;20225;-74
2021/09/17 03:23:00;;;;;;;23.30;11.20;;;;;;;14.18;98.43;96289.38;5010926;28;20206;-74
2021/09/17 03:25:26;;;;;;;19.02;10.77;;;;;;;14.19;98.34;96290.19;5011581;28;20659;-74
2021/09/17 03:27:53;;;;;;;24.55;12.43;;;;;;;14.25;98.31;96289.41;5011598;28;20201;-74
2021/09/17 03:30:19;;;;;;;20.73;11.98;;;;;;;14.32;97.26;96290.22;5011189;28;20588;-73
2021/09/17 03:32:46;;;;;;;21.67;13.05;;;;;;;14.30;97.53;96290.44;5010680;28;20222;-73
2021/09/17 03:35:12;;;;;;;22.38;11.98;;;;;;;14.42;96.95;96290.66;5011086;28;20202;-73
2021/09/17 03:37:38;;;;;;;22.20;11.55;;;;;;;14.52;97.13;96291.91;5011313;28;20198;-72
2021/09/17 03:40:10;;;;;;;21.70;11.43;;;;;;;14.66;96.77;96293.59;5010872;28;20199;-73
2021/09/17 03:42:36;;;;;;;20.17;11.63;;;;;;;14.41;97.33;96289.88;5010890;28;20250;-73
2021/09/17 03:45:04;;;;;;;21.65;12.00;;;;;;;14.39;98.00;96296.38;5010900;28;20209;-73
2021/09/17 03:47:31;;;;;;;21.42;12.10;;;;;;;14.49;96.41;96302.13;5009942;28;20213;-72
2021/09/17 03:49:57;;;;;;;21.58;12.65;;;;;;;14.62;96.38;96294.22;5010579;28;20230;-73
2021/09/17 03:52:23;;;;;;;23.60;11.60;;;;;;;14.60;96.81;96296.22;5010950;28;20226;-73
2021/09/17 03:54:50;;;;;;;21.83;12.30;;;;;;;14.56;97.08;96298.50;5010364;28;20198;-73
2021/09/17 03:57:18;;;;;;;22.98;12.02;;;;;;;14.76;97.05;96292.19;5010686;28;20225;-73
2021/09/17 03:59:44;;;;;;;19.75;11.38;;;;;;;14.61;97.07;96284.63;5010400;28;20199;-74
2021/09/17 04:02:11;;;;;;;22.65;11.57;;;;;;;14.67;97.08;96296.03;5010433;28;20226;-74
2021/09/17 04:04:39;;;;;;;22.27;11.73;;;;;;;14.71;97.16;96297.31;5010341;28;20217;-74
2021/09/17 04:07:06;;;;;;;24.35;11.65;;;;;;;14.74;97.06;96296.88;5010791;28;20207;-74
2021/09/17 04:09:32;;;;;;;25.00;12.18;;;;;;;14.77;97.11;96291.19;5010712;28;20665;-73
2021/09/17 04:11:59;;;;;;;23.20;11.80;;;;;;;14.70;96.32;96286.88;5010393;28;20226;-74
2021/09/17 04:14:27;;;;;;;22.75;11.88;;;;;;;14.85;97.20;96296.28;5010248;28;20214;-73
2021/09/17 04:16:53;;;;;;;22.80;11.70;;;;;;;14.70;96.22;96290.34;5010231;28;20194;-73
2021/09/17 04:19:20;;;;;;;23.63;11.35;;;;;;;14.77;96.85;96290.38;5010771;28;20198;-73
2021/09/17 04:21:46;;;;;;;23.33;11.63;;;;;;;14.77;96.15;96283.22;5009826;28;20225;-73
2021/09/17 04:24:13;;;;;;;23.02;11.35;;;;;;;14.64;97.36;96283.19;5010085;28;20206;-74
2021/09/17 04:26:39;;;;;;;24.48;10.98;;;;;;;14.76;96.91;96284.22;5010488;28;20273;-73
2021/09/17 04:29:06;;;;;;;21.33;11.15;;;;;;;14.79;97.06;96289.16;5009838;28;20205;-73
2021/09/17 04:31:34;;;;;;;23.20;11.43;;;;;;;14.94;96.73;96288.97;5009597;28;20618;-73
2021/09/17 04:34:00;;;;;;;22.27;11.45;;;;;;;14.81;96.85;96297.72;5010093;28;20203;-73
2021/09/17 04:36:27;;;;;;;26.88;12.25;;;;;;;14.86;96.32;96297.94;5010234;28;20221;-73
2021/09/17 04:38:53;;;;;;;22.65;11.27;;;;;;;14.84;96.75;96292.03;5009733;28;20214;-73
2021/09/17 04:41:20;;;;;;;21.55;10.75;;;;;;;14.74;96.96;96288.13;5009907;28;20721;-73
2021/09/17 04:43:47;;;;;;;22.92;11.20;;;;;;;14.79;97.30;96293.63;5009566;28;20222;-73
2021/09/17 04:46:13;;;;;;;19.35;10.73;;;;;;;14.80;97.51;96289.97;5009887;28;20206;-73
2021/09/17 04:48:41;;;;;;;22.73;11.60;;;;;;;15.03;97.19;96295.72;5009118;28;20225;-73
2021/09/17 04:51:08;;;;;;;23.80;11.95;;;;;;;14.84;97.16;96302.63;5009676;28;20233;-71
2021/09/17 04:53:34;;;;;;;23.88;11.15;;;;;;;14.89;96.72;96300.19;5009553;28;20214;-71
2021/09/17 04:56:01;;;;;;;21.35;11.52;;;;;;;15.02;96.46;96297.56;5009824;28;20205;-71
2021/09/17 04:58:27;;;;;;;25.13;11.25;;;;;;;14.87;97.34;96296.91;5009688;28;20753;-70
2021/09/17 05:00:54;;;;;;;23.85;12.02;;;;;;;14.83;97.70;96303.66;5009716;28;20219;-73
2021/09/17 05:03:20;;;;;;;23.33;11.65;;;;;;;14.91;97.69;96298.13;5009204;28;20217;-73
2021/09/17 05:05:48;;;;;;;24.70;12.07;;;;;;;14.99;97.93;96297.94;5009880;28;20210;-73
2021/09/17 05:08:14;;;;;;;23.73;12.25;;;;;;;14.96;97.25;96301.00;5008895;28;20563;-72
2021/09/17 05:10:41;;;;;;;23.20;12.15;;;;;;;14.96;97.27;96308.16;5009795;28;20222;-73
2021/09/17 05:13:07;;;;;;;23.92;12.90;;;;;;;14.90;96.14;96309.75;5008975;28;20210;-73
2021/09/17 05:15:34;;;;;;;22.67;13.35;;;;;;;14.99;96.92;96310.41;5009705;28;20206;-73
2021/09/17 05:18:00;;;;;;;26.67;13.35;;;;;;;14.95;98.04;96309.97;5009268;28;20198;-73
2021/09/17 05:20:27;;;;;;;28.60;13.00;;;;;;;15.09;97.37;96306.34;5009801;28;20203;-74
2021/09/17 05:22:54;;;;;;;29.92;14.25;;;;;;;14.95;97.50;96315.28;5009174;28;20222;-74
2021/09/17 05:25:21;;;;;;;32.65;14.38;;;;;;;14.90;98.74;96314.28;5009361;28;20206;-74
2021/09/17 05:27:47;;;;;;;27.83;13.68;;;;;;;15.08;97.61;96320.63;5009089;28;20198;-74
2021/09/17 05:30:14;;;;;;;27.00;13.48;;;;;;;15.06;97.91;96313.88;5009539;28;20234;-74
2021/09/17 05:32:41;;;;;;;27.50;13.68;;;;;;;15.20;97.65;96313.69;5009055;28;20222;-74
2021/09/17 05:35:08;;;;;;;24.52;12.93;;;;;;;15.29;97.85;96312.50;5008955;28;20213;-73
2021/09/17 05:37:35;;;;;;;27.23;13.63;;;;;;;15.26;98.13;96318.22;5009274;28;20203;-74
2021/09/17 05:40:04;;;;;;;32.92;13.15;;;;;;;15.32;98.15;96312.09;5009154;28;20199;-74
2021/09/17 05:42:31;;;;;;;26.45;14.10;;;;;;;15.26;97.95;96316.41;5009087;28;20242;-73
2021/09/17 05:44:57;;;;;;;29.35;14.90;;;;;;;15.01;97.92;96311.84;5009009;28;20213;-73
2021/09/17 05:47:24;;;;;;;31.27;14.55;;;;;;;15.16;97.79;96311.63;5008298;28;20654;-73
2021/09/17 05:49:50;;;;;;;29.38;14.43;;;;;;;15.26;97.19;96313.72;5009436;28;20202;-74
2021/09/17 05:52:17;;;;;;;25.30;13.82;;;;;;;15.29;97.36;96307.19;5008684;28;20579;-74
2021/09/17 05:54:44;;;;;;;25.92;12.90;;;;;;;15.23;96.96;96310.66;5008305;28;20203;-74
2021/09/17 05:57:11;;;;;;;24.92;13.10;;;;;;;15.59;96.86;96314.56;5009189;28;20209;-73
2021/09/17 05:59:38;;;;;;;25.73;13.73;;;;;;;15.46;97.35;96297.78;5009235;28;20198;-73
2021/09/17 06:02:06;;;;;;;22.92;13.63;;;;;;;15.53;96.94;96307.41;5008887;28;20219;-72
2021/09/17 06:04:33;;;;;;;27.45;13.23;;;;;;;15.66;96.69;96299.41;5008886;28;20674;-74
2021/09/17 06:07:00;;;;;;;28.73;12.98;;;;;;;15.55;96.35;96309.84;5009019;28;20225;-74
2021/09/17 06:09:26;;;;;;;30.70;13.85;;;;;;;15.64;96.50;96304.09;5008803;28;20215;-73
2021/09/17 06:11:53;;;;;;;29.10;13.27;;;;;;;15.75;96.30;96302.69;5008895;28;20721;-73
2021/09/17 06:14:21;;;;;;;31.02;14.18;;;;;;;15.66;97.20;96301.25;5008648;28;20724;-73
2021/09/17 06:16:48;;;;;;;27.10;14.05;;;;;;;15.64;96.40;96301.44;5008832;28;20203;-74
2021/09/17 06:19:14;;;;;;;26.77;13.60;;;;;;;15.68;96.89;96301.84;5010600;28;20202;-74
2021/09/17 06:21:41;;;;;;;35.90;15.02;;;;;;;15.67;97.47;96308.19;5012408;28;20732;-74
2021/09/17 06:24:07;;;;;;;27.40;14.25;;;;;;;15.65;96.32;96304.94;5012349;28;21098;-74
2021/09/17 06:26:34;;;;;;;30.73;13.77;;;;;;;15.77;95.61;96316.56;5012845;28;20214;-74
2021/09/17 06:29:03;;;;;;;26.45;13.82;;;;;;;16.00;95.83;96315.91;5012525;28;20203;-73
2021/09/17 06:31:31;;;;;;;24.55;13.07;;;;;;;15.85;94.71;96317.97;5012159;28;20598;-73
2021/09/17 06:33:58;;;;;;;28.08;12.80;;;;;;;15.72;95.39;96325.16;5011775;28;20205;-73
2021/09/17 06:36:25;;;;;;;26.35;13.02;;;;;;;15.94;95.24;96318.59;5012299;28;20214;-73
2021/09/17 06:38:51;;;;;;;24.77;12.63;;;;;;;16.04;94.14;96314.47;5012193;28;20198;-73
2021/09/17 06:41:18;;;;;;;25.83;13.70;;;;;;;16.14;93.07;96317.50;5012155;28;20227;-73
2021/09/17 06:43:44;;;;;;;26.83;13.18;;;;;;;16.13;93.63;96315.88;5012042;28;20214;-74
2021/09/17 06:46:11;;;;;;;22.67;12.20;;;;;;;16.16;93.66;96322.63;5012691;28;20225;-73
2021/09/17 06:48:39;;;;;;;24.17;12.35;;;;;;;16.46;92.04;96319.28;5011360;28;20206;-73
2021/09/17 06:51:05;;;;;;;24.95;12.68;;;;;;;16.25;94.50;96324.81;5011501;28;20226;-73
2021/09/17 06:53:32;;;;;;;24.50;13.63;;;;;;;16.29;93.22;96323.41;5011901;28;20202;-73
2021/09/17 06:55:58;;;;;;;26.08;14.25;;;;;;;16.38;93.80;96324.84;5012083;28;20689;-73
2021/09/17 06:58:28;;;;;;;27.95;14.02;;;;;;;16.51;94.06;96322.13;5012043;28;20206;-73
2021/09/17 07:00:55;;;;;;;28.20;14.18;;;;;;;16.57;92.13;96321.25;5011711;28;20222;-73
2021/09/17 07:03:22;;;;;;;27.90;13.73;;;;;;;16.47;92.09;96326.22;5011223;28;20695;-73
2021/09/17 07:05:50;;;;;;;27.58;13.07;;;;;;;16.51;93.00;96322.13;5012215;28;20225;-73
2021/09/17 07:08:18;;;;;;;29.35;14.13;;;;;;;16.53;93.12;96322.72;5011293;28;20674;-73
2021/09/17 07:10:45;;;;;;;27.08;13.60;;;;;;;16.79;93.65;96320.75;5011584;28;20253;-73
2021/09/17 07:13:12;;;;;;;25.27;13.20;;;;;;;16.70;92.64;96323.84;5011420;28;20210;-73
2021/09/17 07:15:38;;;;;;;23.33;12.30;;;;;;;16.76;91.41;96320.34;5011506;28;20225;-70
2021/09/17 07:18:06;;;;;;;26.85;14.18;;;;;;;16.81;91.61;96323.19;5011056;28;20213;-71
2021/09/17 07:20:33;;;;;;;22.65;13.27;;;;;;;16.96;90.26;96327.19;5011661;28;20214;-72
2021/09/17 07:23:01;;;;;;;24.48;12.68;;;;;;;17.09;91.65;96327.94;5011261;28;20630;-71
2021/09/17 07:25:27;;;;;;;22.17;12.52;;;;;;;16.89;90.73;96325.59;5011617;28;20210;-71
2021/09/17 07:27:54;;;;;;;22.10;12.75;;;;;;;17.10;90.41;96328.75;5011377;28;20213;-71
2021/09/17 07:30:22;;;;;;;23.98;13.25;;;;;;;17.15;89.61;96326.25;5010436;28;20221;-72
2021/09/17 07:32:48;;;;;;;24.48;12.82;;;;;;;17.30;90.52;96326.81;5010438;28;20693;-71
2021/09/17 07:35:15;;;;;;;25.13;13.00;;;;;;;17.30;90.61;96330.28;5011534;28;20559;-72
2021/09/17 07:37:42;;;;;;;23.38;12.73;;;;;;;17.34;89.82;96333.34;5011311;28;20207;-70
2021/09/17 07:40:13;;;;;;;25.23;12.93;;;;;;;17.64;89.16;96327.13;5010944;28;20214;-70
2021/09/17 07:42:40;;;;;;;24.85;12.75;;;;;;;17.49;90.19;96339.16;5010741;28;20345;-70
2021/09/17 07:45:08;;;;;;;22.90;13.05;;;;;;;17.58;89.50;96333.34;5010635;28;20203;-70
2021/09/17 07:47:34;;;;;;;22.52;12.43;;;;;;;17.53;89.76;96325.19;5009953;28;20657;-71
2021/09/17 07:50:01;;;;;;;22.05;12.55;;;;;;;17.67;86.50;96326.72;5010862;28;20194;-70
2021/09/17 07:52:27;;;;;;;23.40;12.93;;;;;;;17.54;87.72;96326.81;5010917;28;20235;-71
2021/09/17 07:54:54;;;;;;;22.67;13.05;;;;;;;17.71;87.88;96322.56;5010303;28;20202;-71
2021/09/17 07:57:22;;;;;;;24.67;13.02;;;;;;;17.88;88.49;96318.31;5010756;28;20210;-71
2021/09/17 07:59:48;;;;;;;23.23;13.10;;;;;;;17.77;88.55;96327.84;5010521;28;20203;-71
2021/09/17 08:02:14;;;;;;;22.58;12.70;;;;;;;17.79;85.32;96325.78;5010835;28;20222;-72
2021/09/17 08:04:41;;;;;;;22.77;12.77;;;;;;;17.49;86.28;96321.34;5010542;28;20678;-72
2021/09/17 08:07:08;;;;;;;24.60;12.90;;;;;;;17.93;87.10;96318.47;5010306;28;20207;-73
2021/09/17 08:09:36;;;;;;;22.38;12.63;;;;;;;17.84;86.69;96317.91;5010862;28;20205;-74
2021/09/17 08:12:03;;;;;;;24.20;12.93;;;;;;;17.76;85.46;96312.88;5010366;28;20234;-74
2021/09/17 08:14:31;;;;;;;25.10;13.02;;;;;;;17.77;84.51;96319.03;5010305;28;20214;-73
2021/09/17 08:16:58;;;;;;;23.23;11.88;;;;;;;18.09;84.86;96317.91;5010190;28;20207;-74
2021/09/17 08:19:25;;;;;;;23.58;12.05;;;;;;;18.09;84.12;96321.38;5010545;28;20210;-74
2021/09/17 08:21:51;;;;;;;23.67;12.73;;;;;;;17.93;84.18;96315.81;5010692;28;20268;-74
2021/09/17 08:24:18;;;;;;;21.55;12.65;;;;;;;17.91;83.62;96329.34;5009676;28;20670;-74
2021/09/17 08:26:46;;;;;;;21.58;11.40;;;;;;;18.05;80.96;96325.53;5010519;28;20195;-73
2021/09/17 08:29:13;;;;;;;21.48;11.70;;;;;;;18.20;81.04;96323.34;5010342;28;20199;-73
2021/09/17 08:31:41;;;;;;;23.05;12.77;;;;;;;18.33;80.58;96318.69;5009889;28;20226;-73
2021/09/17 08:34:09;;;;;;;21.85;12.32;;;;;;;18.69;80.10;96325.84;5010077;28;20195;-74
2021/09/17 08:36:37;;;;;;;25.08;13.35;;;;;;;18.86;79.88;96316.97;5010475;28;20806;-74
2021/09/17 08:39:04;;;;;;;21.38;12.07;;;;;;;18.83;79.81;96320.09;5009849;28;20207;-74
2021/09/17 08:41:31;;;;;;;18.50;11.30;;;;;;;18.70;80.43;96320.28;5009816;28;20585;-73
2021/09/17 08:43:57;;;;;;;22.38;12.65;;;;;;;18.97;77.21;96322.38;5009803;28;20202;-73
2021/09/17 08:46:24;;;;;;;20.70;11.10;;;;;;;18.95;79.26;96323.63;5009727;28;20212;-74
2021/09/17 08:48:52;;;;;;;22.55;11.40;;;;;;;18.93;79.24;96320.38;5009108;28;20203;-74
2021/09/17 08:51:20;;;;;;;20.77;12.07;;;;;;;18.96;77.20;96328.78;5009682;28;20231;-73
2021/09/17 08:53:47;;;;;;;22.55;12.50;;;;;;;18.99;78.42;96325.63;5009715;28;20202;-73
2021/09/17 08:56:15;;;;;;;21.80;12.20;;;;;;;19.17;78.09;96322.94;5009607;28;20218;-73
2021/09/17 08:58:42;;;;;;;21.20;12.35;;;;;;;19.10;81.25;96319.53;5009974;28;20569;-73
2021/09/17 09:01:09;;;;;;;20.70;12.60;;;;;;;19.02;79.93;96321.72;5009827;28;20226;-73
2021/09/17 09:03:37;;;;;;;21.15;12.65;;;;;;;19.09;76.40;96320.59;5009529;28;20226;-73
2021/09/17 09:06:12;;;;;;;24.25;12.20;;;;;;;19.51;76.25;96329.41;5009288;28;20206;-73
2021/09/17 09:08:40;;;;;;;20.38;12.40;;;;;;;19.06;75.73;96318.38;5009704;28;20285;-74
2021/09/17 09:11:15;;;;;;;21.75;13.23;;;;;;;19.14;76.60;96325.25;5009869;28;20218;-73
2021/09/17 09:13:58;;;;;;;20.95;12.82;;;;;;;19.12;77.82;96324.69;5009341;28;20221;-73
2021/09/17 09:16:24;;;;;;;23.02;14.07;;;;;;;18.75;79.47;96327.59;5009882;28;20632;-72
2021/09/17 09:18:51;;;;;;;23.38;14.43;;;;;;;19.02;80.14;96319.03;5009468;28;20206;-74
2021/09/17 09:21:26;;;;;;;22.17;14.32;;;;;;;19.63;77.71;96318.53;5009543;28;20234;-74
2021/09/17 09:24:09;;;;;;;22.13;13.60;;;;;;;19.91;75.42;96317.88;5009254;28;20275;-73
2021/09/17 09:26:35;;;;;;;24.13;13.65;;;;;;;19.27;77.48;96322.38;5009445;28;20712;-72
2021/09/17 09:29:02;;;;;;;21.02;13.73;;;;;;;19.76;73.64;96307.59;5009277;28;20198;-72
2021/09/17 09:31:40;;;;;;;21.60;13.43;;;;;;;19.88;76.36;96308.44;5009369;28;20713;-72
2021/09/17 09:34:06;;;;;;;20.42;13.50;;;;;;;19.94;75.51;96312.06;5008851;28;20206;-73
2021/09/17 09:36:35;;;;;;;22.77;13.32;;;;;;;20.22;73.83;96308.41;5009487;28;20209;-72
2021/09/17 09:39:03;;;;;;;19.33;12.95;;;;;;;19.88;74.74;96311.13;5009552;28;20199;-72
2021/09/17 09:41:31;;;;;;;20.20;13.25;;;;;;;20.26;71.97;96309.63;5008840;28;20233;-73
2021/09/17 09:44:00;;;;;;;26.15;14.25;;;;;;;20.21;69.35;96306.81;5008751;28;20540;-73
2021/09/17 09:46:32;;;;;;;18.80;12.93;;;;;;;20.21;70.56;96306.00;5008923;28;20202;-73
2021/09/17 09:49:05;;;;;;;22.55;13.38;;;;;;;20.49;69.70;96298.03;5009144;28;20205;-72
2021/09/17 09:51:34;;;;;;;21.38;13.40;;;;;;;20.59;70.24;96300.94;5008977;28;20234;-72
2021/09/17 09:54:04;;;;;;;22.15;13.88;;;;;;;20.52;72.52;96295.69;5010790;28;20202;-72
2021/09/17 09:56:31;;;;;;;19.42;12.73;;;;;;;20.39;73.51;96292.47;5013117;28;20253;-72
2021/09/17 09:59:02;;;;;;;21.58;11.68;;;;;;;20.96;70.47;96290.47;5012831;28;20696;-74
2021/09/17 10:01:29;;;;;;;18.55;12.02;;;;;;;20.41;72.84;96285.03;5012827;28;20589;-73
2021/09/17 10:03:57;;;;;;;17.80;10.75;;;;;;;20.60;72.95;96295.31;5012790;28;20210;-74
2021/09/17 10:06:25;;;;;;;19.95;10.75;;;;;;;20.31;66.33;96284.81;5012763;28;20755;-74
2021/09/17 10:08:53;;;;;;;17.45;10.55;;;;;;;19.96;75.08;96281.38;5012679;28;20195;-73
2021/09/17 10:11:22;;;;;;;16.02;9.88;;;;;;;20.50;70.29;96276.38;5012880;28;20226;-73
2021/09/17 10:13:49;;;;;;;14.02;9.20;;;;;;;20.42;65.68;96278.63;5012467;28;20198;-73
2021/09/17 10:16:17;;;;;;;11.98;8.05;;;;;;;20.85;66.63;96277.13;5012527;28;20202;-72
2021/09/17 10:18:45;;;;;;;7.65;5.18;;;;;;;20.53;60.23;96283.13;5012197;28;20420;-72
2021/09/17 10:21:13;;;;;;;14.40;7.50;;;;;;;20.39;61.14;96276.41;5012408;28;20223;-72
2021/09/17 10:23:44;;;;;;;9.52;6.45;;;;;;;20.55;60.73;96273.00;5012792;28;20205;-72
2021/09/17 10:26:15;;;;;;;10.25;5.38;;;;;;;20.48;58.82;96270.47;5012452;28;20290;-72
2021/09/17 10:29:05;;;;;;;9.98;5.22;;;;;;;20.81;57.40;96273.25;5012614;28;20331;-73
2021/09/17 10:31:41;;;;;;;8.68;5.30;;;;;;;20.75;59.08;96271.56;5012031;28;20230;-74
2021/09/17 10:34:29;;;;;;;8.95;4.80;;;;;;;20.98;62.76;96274.16;5012380;28;20206;-73
2021/09/17 10:36:56;;;;;;;8.82;5.68;;;;;;;20.72;63.75;96265.81;5012227;28;20556;-73
2021/09/17 10:39:22;;;;;;;9.40;5.38;;;;;;;21.08;64.03;96263.63;5012396;28;20283;-73
2021/09/17 10:42:13;;;;;;;8.68;5.25;;;;;;;21.23;62.59;96270.06;5012075;28;20273;-72
2021/09/17 10:45:18;;;;;;;9.05;6.85;;;;;;;21.24;61.06;96265.50;5012078;28;20221;-73
2021/09/17 10:47:58;;;;;;;10.48;7.43;;;;;;;21.38;63.07;96262.25;5011021;28;20198;-73
2021/09/17 10:50:39;;;;;;;12.15;7.32;;;;;;;21.30;61.24;96264.53;5011864;28;20218;-74
2021/09/17 10:53:06;;;;;;;11.18;7.25;;;;;;;20.64;64.00;96258.19;5011676;28;20230;-72
2021/09/17 10:56:02;;;;;;;11.25;7.55;;;;;;;21.06;61.09;96253.13;5012152;28;20210;-73
2021/09/17 10:58:30;;;;;;;9.55;6.28;;;;;;;20.88;66.71;96260.56;5011884;28;20214;-73
2021/09/17 11:01:00;;;;;;;10.43;7.30;;;;;;;20.82;64.91;96252.66;5011518;28;20211;-74
2021/09/17 11:03:58;;;;;;;9.85;6.60;;;;;;;21.07;64.66;96252.06;5012194;28;20257;-74
2021/09/17 11:06:27;;;;;;;9.55;6.60;;;;;;;20.98;58.72;96264.22;5010603;28;20214;-74
2021/09/17 11:08:54;;;;;;;9.43;7.32;;;;;;;20.74;62.44;96258.41;5011971;28;20198;-73
2021/09/17 11:11:22;;;;;;;8.85;6.38;;;;;;;20.82;61.73;96258.03;5011442;28;20249;-72
2021/09/17 11:13:49;;;;;;;9.85;6.72;;;;;;;20.85;66.88;96261.03;5010972;28;20731;-73
2021/09/17 11:16:18;;;;;;;8.10;6.38;;;;;;;20.77;63.72;96258.72;5011751;28;20218;-73
2021/09/17 11:18:52;;;;;;;10.40;6.80;;;;;;;20.80;65.83;96255.59;5011429;28;20277;-73
2021/09/17 11:21:19;;;;;;;9.98;6.00;;;;;;;20.58;62.38;96264.47;5011794;28;20229;-73
2021/09/17 11:23:48;;;;;;;11.25;6.32;;;;;;;20.72;60.87;96253.28;5010842;28;20579;-74
2021/09/17 11:26:21;;;;;;;10.43;5.93;;;;;;;20.60;64.12;96252.47;5011667;28;20195;-73